Weather at Brennand Airport

Public forecast

Using degrees Fahrenheit for public forecast. Weather courtesy of forecast.io.

Closest aviation weather report (METAR) to Brennand Airport

Closest report is Appleton International Airport, 6.1 nm (11.4 km) NNE. Retrieved 2021/06/23 01:45 UTC (42 minutes ago):

KATW 230145Z 00000KT 10SM SCT090 17/03 A2993

Closest aviation forecast (TAF) to Brennand Airport

Closest forecast is Appleton International Airport, 6.1 nm (11.4 km) NNE. Retrieved 2021-06-23 00:39 UTC (2 hours ago):

TAF KATW 222336Z 2300/2324 27007KT P6SM SCT070 FM230300 17005KT P6SM SCT250 FM231200 19007KT P6SM BKN040 FM231400 20008G15KT P6SM BKN025 TEMPO 2314/2318 BKN015 FM232000 20012G20KT P6SM SCT045